createdAt,value
2022-09-27T00:00:55.625Z,15.10
2022-09-27T00:04:22.479Z,16.23
2022-09-27T00:11:30.592Z,17.17
2022-09-27T00:14:57.010Z,20.20
2022-09-27T00:18:05.723Z,14.83
2022-09-27T00:20:34.637Z,18.47
2022-09-27T00:23:01.364Z,15.67
2022-09-27T00:25:28.222Z,14.77
2022-09-27T00:27:54.845Z,15.00
2022-09-27T00:30:21.566Z,15.20
2022-09-27T00:32:48.534Z,14.30
2022-09-27T00:35:16.367Z,23.53
2022-09-27T00:37:43.054Z,14.90
2022-09-27T00:40:10.357Z,17.83
2022-09-27T00:42:37.206Z,19.90
2022-09-27T00:45:07.636Z,16.43
2022-09-27T00:47:43.285Z,14.10
2022-09-27T00:50:24.051Z,21.07
2022-09-27T00:53:02.931Z,14.43
2022-09-27T00:55:40.898Z,13.73
2022-09-27T00:58:08.541Z,18.40
2022-09-27T01:00:38.086Z,12.03
2022-09-27T01:03:09.852Z,17.73
2022-09-27T01:05:36.575Z,21.17
2022-09-27T01:08:04.131Z,17.53
2022-09-27T01:11:37.169Z,17.53
2022-09-27T01:14:43.928Z,16.43
2022-09-27T01:17:59.603Z,18.77
2022-09-27T01:24:43.108Z,22.40
2022-09-27T01:27:18.742Z,28.80
2022-09-27T01:29:57.580Z,20.57
2022-09-27T01:32:52.689Z,25.63
2022-09-27T01:35:30.267Z,24.90
2022-09-27T01:38:52.819Z,20.73
2022-09-27T01:41:53.549Z,22.80
2022-09-27T01:44:29.786Z,20.57
2022-09-27T01:47:02.229Z,16.63
2022-09-27T01:50:18.341Z,18.35
2022-09-27T01:52:53.577Z,18.33
2022-09-27T01:55:24.440Z,23.13
2022-09-27T01:57:58.393Z,19.40
2022-09-27T02:00:25.312Z,19.63
2022-09-27T02:03:12.968Z,24.20
2022-09-27T02:05:54.055Z,18.03
2022-09-27T02:08:34.496Z,23.10
2022-09-27T02:11:04.672Z,17.60
2022-09-27T02:13:53.247Z,16.87
2022-09-27T02:16:33.975Z,22.03
2022-09-27T02:19:52.605Z,20.57
2022-09-27T02:22:54.002Z,21.87
2022-09-27T02:25:47.412Z,19.67
2022-09-27T02:30:43.803Z,18.53
2022-09-27T02:33:10.893Z,17.93
2022-09-27T02:35:37.512Z,23.93
2022-09-27T02:38:09.552Z,25.20
2022-09-27T02:40:44.477Z,19.83
2022-09-27T02:43:12.436Z,20.97
2022-09-27T02:46:12.090Z,26.13
2022-09-27T02:49:19.729Z,24.17
2022-09-27T02:52:14.311Z,18.80
2022-09-27T02:55:18.112Z,21.07
2022-09-27T02:58:03.691Z,26.00
2022-09-27T03:01:12.298Z,23.40
2022-09-27T03:04:11.455Z,19.40
2022-09-27T03:06:41.497Z,25.73
2022-09-27T03:09:21.893Z,21.77
2022-09-27T03:11:49.229Z,23.77
2022-09-27T03:14:16.707Z,23.40
2022-09-27T03:16:43.774Z,22.03
2022-09-27T03:19:10.698Z,20.13
2022-09-27T03:21:37.639Z,18.33
2022-09-27T03:24:04.483Z,20.03
2022-09-27T03:26:31.305Z,20.60
2022-09-27T03:28:57.963Z,22.60
2022-09-27T03:31:24.835Z,21.73
2022-09-27T03:33:51.670Z,22.40
2022-09-27T03:36:18.278Z,14.87
2022-09-27T03:38:45.102Z,15.23
2022-09-27T03:41:11.817Z,15.27
2022-09-27T03:43:38.850Z,23.97
2022-09-27T03:46:05.809Z,23.73
2022-09-27T03:48:32.620Z,20.37
2022-09-27T03:50:59.359Z,17.47
2022-09-27T03:53:26.227Z,23.10
2022-09-27T03:55:52.983Z,20.73
2022-09-27T03:58:19.647Z,20.27
2022-09-27T04:00:46.989Z,23.13
2022-09-27T04:03:14.408Z,14.03
2022-09-27T04:06:41.010Z,15.53
2022-09-27T04:10:07.421Z,19.63
2022-09-27T04:12:35.693Z,23.20
2022-09-27T04:15:07.524Z,18.80
2022-09-27T04:17:35.529Z,22.87
2022-09-27T04:20:03.594Z,15.30
2022-09-27T04:22:32.277Z,18.83
2022-09-27T04:24:59.915Z,18.33
2022-09-27T04:27:27.567Z,22.97
2022-09-27T04:30:00.172Z,21.63
2022-09-27T04:32:28.467Z,15.15
2022-09-27T04:35:18.325Z,23.60
2022-09-27T04:37:47.267Z,19.03
2022-09-27T04:40:16.941Z,15.43
2022-09-27T04:42:44.549Z,19.77
2022-09-27T04:45:13.552Z,22.10
2022-09-27T04:47:50.831Z,19.67
2022-09-27T04:50:19.520Z,25.13
2022-09-27T04:52:55.196Z,19.63
2022-09-27T04:55:33.834Z,21.57
2022-09-27T05:00:29.521Z,15.77
2022-09-27T05:02:58.927Z,23.13
2022-09-27T05:05:26.458Z,19.13
2022-09-27T05:07:56.107Z,17.20
2022-09-27T05:10:26.769Z,21.43
2022-09-27T05:13:03.459Z,23.63
2022-09-27T05:15:30.478Z,20.00
2022-09-27T05:18:00.748Z,25.03
2022-09-27T05:20:30.398Z,20.27
2022-09-27T05:22:59.444Z,20.70
2022-09-27T05:25:28.701Z,19.07
2022-09-27T05:27:58.362Z,19.03
2022-09-27T05:30:26.895Z,19.90
2022-09-27T05:32:54.951Z,20.00
2022-09-27T05:35:25.301Z,21.03
2022-09-27T05:37:58.967Z,17.73
2022-09-27T05:40:40.724Z,17.07
2022-09-27T05:43:11.120Z,25.27
2022-09-27T05:45:40.621Z,23.47
2022-09-27T05:48:07.698Z,22.00
2022-09-27T05:50:36.498Z,21.13
2022-09-27T05:53:06.971Z,15.90
2022-09-27T05:55:35.189Z,20.83
2022-09-27T05:58:05.471Z,20.00
2022-09-27T06:00:36.494Z,15.60
2022-09-27T06:03:05.687Z,25.40
2022-09-27T06:05:39.237Z,17.53
2022-09-27T06:08:09.907Z,18.17
2022-09-27T06:10:37.516Z,21.50
2022-09-27T06:13:17.440Z,26.13
2022-09-27T06:15:48.563Z,22.77
2022-09-27T06:18:19.624Z,23.37
2022-09-27T06:20:49.304Z,20.20
2022-09-27T06:23:18.985Z,21.60
2022-09-27T06:25:49.267Z,21.80
2022-09-27T06:28:18.101Z,23.67
2022-09-27T06:30:48.021Z,24.33
2022-09-27T06:33:19.627Z,21.30
2022-09-27T06:35:51.341Z,19.17
2022-09-27T06:38:19.632Z,25.20
2022-09-27T06:40:48.331Z,22.00
2022-09-27T06:43:22.352Z,17.03
2022-09-27T06:45:51.121Z,18.37
2022-09-27T06:48:19.687Z,20.77
2022-09-27T06:50:50.342Z,20.87
2022-09-27T06:53:22.083Z,23.90
2022-09-27T06:55:54.687Z,23.35
2022-09-27T06:58:41.013Z,21.97
2022-09-27T07:01:11.080Z,16.40
2022-09-27T07:03:43.350Z,22.37
2022-09-27T07:06:25.687Z,22.15
2022-09-27T07:08:54.310Z,18.63
2022-09-27T07:11:24.002Z,18.83
2022-09-27T07:13:55.380Z,20.47
2022-09-27T07:16:23.819Z,21.97
2022-09-27T07:18:51.279Z,18.80
2022-09-27T07:21:24.759Z,21.67
2022-09-27T07:23:59.445Z,22.70
2022-09-27T07:26:29.434Z,21.00
2022-09-27T07:29:00.144Z,29.37
2022-09-27T07:31:32.205Z,20.37
2022-09-27T07:34:03.885Z,18.13
2022-09-27T07:36:34.233Z,19.87
2022-09-27T07:39:04.255Z,23.77
2022-09-27T07:41:33.487Z,19.77
2022-09-27T07:44:03.489Z,18.17
2022-09-27T07:46:33.176Z,27.43
2022-09-27T07:49:01.403Z,21.77
2022-09-27T07:51:29.317Z,23.27
2022-09-27T07:54:03.249Z,20.70
2022-09-27T07:56:34.773Z,21.83
2022-09-27T07:59:06.596Z,22.57
2022-09-27T08:01:35.154Z,17.30
2022-09-27T08:04:02.724Z,24.20
2022-09-27T08:06:33.722Z,21.30
2022-09-27T08:09:01.788Z,20.20
2022-09-27T08:11:28.886Z,21.30
2022-09-27T08:14:01.486Z,17.60
2022-09-27T08:16:28.629Z,25.10
2022-09-27T08:18:58.233Z,17.43
2022-09-27T08:21:27.264Z,22.63
2022-09-27T08:23:56.466Z,20.57
2022-09-27T08:26:25.564Z,21.23
2022-09-27T08:28:55.203Z,19.67
2022-09-27T08:31:22.508Z,20.07
2022-09-27T08:33:52.463Z,22.73
2022-09-27T08:36:22.115Z,24.33
2022-09-27T08:38:50.739Z,14.60
2022-09-27T08:41:25.437Z,11.23
2022-09-27T08:43:55.762Z,21.37
2022-09-27T08:46:48.910Z,22.23
2022-09-27T08:49:26.445Z,29.55
2022-09-27T08:51:57.083Z,17.73
2022-09-27T08:54:30.668Z,15.63
2022-09-27T08:57:24.615Z,19.77
2022-09-27T09:00:00.372Z,19.57
2022-09-27T09:02:29.767Z,16.67
2022-09-27T09:05:02.362Z,20.07
2022-09-27T09:07:49.619Z,20.40
2022-09-27T09:10:49.364Z,19.17
2022-09-27T09:13:38.526Z,20.87
2022-09-27T09:16:24.872Z,23.63
2022-09-27T09:19:09.917Z,20.70
2022-09-27T09:21:57.623Z,20.00
2022-09-27T09:25:12.978Z,21.77
2022-09-27T09:27:51.954Z,31.10
2022-09-27T09:30:34.783Z,18.30
2022-09-27T09:33:30.537Z,20.98
2022-09-27T09:36:08.168Z,16.40
2022-09-27T09:38:39.214Z,20.70
2022-09-27T09:41:36.890Z,20.37
2022-09-27T09:44:25.276Z,15.87
2022-09-27T09:47:01.887Z,20.87
2022-09-27T09:49:48.391Z,20.77
2022-09-27T09:52:23.863Z,18.53
2022-09-27T09:55:00.559Z,20.03
2022-09-27T09:58:01.711Z,24.93
2022-09-27T10:00:29.936Z,23.87
2022-09-27T10:03:04.155Z,21.37
2022-09-27T10:05:35.326Z,24.37
2022-09-27T10:08:11.400Z,19.17
2022-09-27T10:10:38.852Z,20.50
2022-09-27T10:13:08.475Z,19.73
2022-09-27T10:15:38.085Z,20.67
2022-09-27T10:18:05.698Z,22.77
2022-09-27T10:20:54.412Z,19.50
2022-09-27T10:23:26.019Z,20.37
2022-09-27T10:25:59.328Z,23.30
2022-09-27T10:28:43.357Z,16.87
2022-09-27T10:31:22.079Z,17.83
2022-09-27T10:34:03.315Z,16.23
2022-09-27T10:36:40.351Z,21.43
2022-09-27T10:39:27.601Z,21.33
2022-09-27T10:41:59.258Z,15.30
2022-09-27T10:44:30.933Z,19.35
2022-09-27T10:47:08.957Z,19.10
2022-09-27T10:49:39.284Z,20.57
2022-09-27T10:52:20.266Z,23.47
2022-09-27T10:55:02.549Z,19.73
2022-09-27T10:57:32.581Z,19.35
2022-09-27T11:00:05.221Z,18.70
2022-09-27T11:02:39.149Z,16.35
2022-09-27T11:05:31.584Z,14.03
2022-09-27T11:08:28.490Z,18.65
2022-09-27T11:11:11.602Z,17.17
2022-09-27T11:13:45.823Z,17.30
2022-09-27T11:16:24.975Z,17.40
2022-09-27T11:19:22.215Z,20.13
2022-09-27T11:22:13.695Z,16.07
2022-09-27T11:24:49.427Z,14.83
2022-09-27T11:27:44.166Z,19.77
2022-09-27T11:30:17.813Z,15.50
2022-09-27T11:33:03.235Z,16.30
2022-09-27T11:35:53.203Z,14.67
2022-09-27T11:38:51.622Z,13.53
2022-09-27T11:41:24.113Z,17.63
2022-09-27T11:43:57.236Z,18.77
2022-09-27T11:46:41.574Z,13.30
2022-09-27T11:49:25.244Z,12.80
2022-09-27T11:52:13.325Z,14.07
2022-09-27T11:54:53.308Z,23.80
2022-09-27T11:57:35.671Z,13.73
2022-09-27T12:00:20.982Z,15.13
2022-09-27T12:03:07.756Z,17.07
2022-09-27T12:06:06.975Z,17.70
2022-09-27T12:08:46.494Z,15.87
2022-09-27T12:11:26.803Z,11.63
2022-09-27T12:14:00.823Z,12.53
2022-09-27T12:16:30.068Z,13.63
2022-09-27T12:19:02.079Z,10.03
2022-09-27T12:21:34.702Z,13.55
2022-09-27T12:24:04.916Z,12.90
2022-09-27T12:26:42.556Z,13.50
2022-09-27T12:29:29.683Z,14.73
2022-09-27T12:32:10.410Z,13.30
2022-09-27T12:34:53.651Z,12.23
2022-09-27T12:37:30.714Z,12.97
2022-09-27T12:40:16.629Z,15.80
2022-09-27T12:42:56.631Z,10.23
2022-09-27T12:45:48.798Z,12.87
2022-09-27T12:48:55.578Z,13.07
2022-09-27T12:51:25.219Z,9.43
2022-09-27T12:54:24.945Z,11.67
2022-09-27T12:56:58.347Z,14.70
2022-09-27T12:59:55.300Z,10.73
2022-09-27T13:03:16.799Z,19.47
2022-09-27T13:06:28.542Z,11.67
2022-09-27T13:09:27.356Z,10.90
2022-09-27T13:12:18.393Z,8.43
2022-09-27T13:15:00.169Z,15.07
2022-09-27T13:17:41.783Z,14.17
2022-09-27T13:20:24.419Z,17.40
2022-09-27T13:22:54.073Z,13.65
2022-09-27T13:25:54.406Z,15.87
2022-09-27T13:28:39.523Z,14.20
2022-09-27T13:31:15.334Z,13.10
2022-09-27T13:33:50.822Z,11.60
2022-09-27T13:36:22.457Z,12.17
2022-09-27T13:39:18.463Z,11.63
2022-09-27T13:41:45.415Z,10.87
2022-09-27T13:44:36.524Z,12.93
2022-09-27T13:47:16.185Z,8.63
2022-09-27T13:49:53.398Z,11.87
2022-09-27T13:52:23.288Z,15.13
2022-09-27T13:54:56.118Z,13.73
2022-09-27T14:00:11.435Z,16.08
2022-09-27T14:05:24.309Z,7.97
2022-09-27T14:07:54.992Z,13.33
2022-09-27T14:10:25.012Z,15.00
2022-09-27T14:12:54.194Z,13.63
2022-09-27T14:15:32.457Z,7.60
2022-09-27T14:18:00.755Z,8.17
2022-09-27T14:20:52.016Z,9.53
2022-09-27T14:23:22.987Z,12.50
2022-09-27T14:25:56.054Z,10.87
2022-09-27T14:28:32.150Z,14.27
2022-09-27T14:31:27.871Z,8.30
2022-09-27T14:34:09.490Z,12.40
2022-09-27T14:36:58.682Z,8.53
2022-09-27T14:39:33.252Z,9.90
2022-09-27T14:42:02.944Z,10.80
2022-09-27T14:44:32.339Z,12.03
2022-09-27T14:47:14.183Z,8.90
2022-09-27T14:49:54.071Z,12.77
2022-09-27T14:52:29.175Z,12.33
2022-09-27T14:55:09.787Z,10.03
2022-09-27T14:57:37.467Z,9.93
2022-09-27T15:00:36.811Z,12.90
2022-09-27T15:03:11.007Z,10.88
2022-09-27T15:05:44.998Z,8.17
2022-09-27T15:08:16.653Z,10.97
2022-09-27T15:10:46.911Z,12.80
2022-09-27T15:13:18.743Z,9.73
2022-09-27T15:15:50.841Z,13.32
2022-09-27T15:21:03.202Z,9.87
2022-09-27T15:26:29.557Z,7.57
2022-09-27T15:28:56.829Z,15.03
2022-09-27T15:31:36.858Z,14.47
2022-09-27T15:34:07.440Z,12.23
2022-09-27T15:36:58.033Z,14.23
2022-09-27T15:39:42.625Z,7.97
2022-09-27T15:42:21.747Z,12.37
2022-09-27T15:44:53.981Z,7.40
2022-09-27T15:47:39.820Z,10.77
2022-09-27T15:50:18.241Z,14.33
2022-09-27T15:52:55.495Z,12.00
2022-09-27T15:55:26.581Z,12.37
2022-09-27T15:58:00.667Z,14.03
2022-09-27T16:00:29.167Z,8.50
2022-09-27T16:02:57.589Z,7.90
2022-09-27T16:05:26.258Z,12.73
2022-09-27T16:07:57.448Z,10.40
2022-09-27T16:10:38.459Z,8.37
2022-09-27T16:13:09.205Z,8.83
2022-09-27T16:15:37.212Z,12.97
2022-09-27T16:18:05.924Z,13.80
2022-09-27T16:20:34.743Z,9.60
2022-09-27T16:23:02.804Z,10.57
2022-09-27T16:25:31.936Z,10.27
2022-09-27T16:28:00.266Z,8.87
2022-09-27T16:30:28.159Z,8.67
2022-09-27T16:32:57.753Z,7.70
2022-09-27T16:35:29.427Z,12.60
2022-09-27T16:37:56.630Z,7.17
2022-09-27T16:40:23.575Z,6.60
2022-09-27T16:42:53.425Z,8.57
2022-09-27T16:45:21.651Z,9.30
2022-09-27T16:47:51.288Z,6.77
2022-09-27T16:50:41.050Z,8.03
2022-09-27T16:53:10.050Z,8.03
2022-09-27T16:55:38.210Z,8.73
2022-09-27T16:58:14.930Z,10.10
2022-09-27T17:00:46.641Z,11.40
2022-09-27T17:03:16.246Z,8.47
2022-09-27T17:05:47.184Z,8.10
2022-09-27T17:08:17.935Z,7.20
2022-09-27T17:10:49.844Z,9.77
2022-09-27T17:13:17.151Z,5.72
2022-09-27T17:15:46.587Z,10.47
2022-09-27T17:18:20.776Z,7.03
2022-09-27T17:20:51.260Z,12.63
2022-09-27T17:23:24.437Z,7.77
2022-09-27T17:25:58.140Z,11.63
2022-09-27T17:28:34.612Z,9.27
2022-09-27T17:31:13.949Z,12.07
2022-09-27T17:33:47.801Z,12.03
2022-09-27T17:36:21.791Z,13.57
2022-09-27T17:38:50.821Z,9.80
2022-09-27T17:41:21.400Z,12.30
2022-09-27T17:43:57.178Z,10.00
2022-09-27T17:46:32.610Z,13.47
2022-09-27T17:49:18.525Z,9.60
2022-09-27T17:51:55.621Z,12.10
2022-09-27T17:54:25.098Z,10.10
2022-09-27T17:56:58.354Z,8.23
2022-09-27T17:59:26.101Z,9.10
2022-09-27T18:01:55.499Z,11.40
2022-09-27T18:04:25.302Z,12.93
2022-09-27T18:06:52.448Z,11.73
2022-09-27T18:09:21.002Z,12.93
2022-09-27T18:11:52.306Z,9.23
2022-09-27T18:14:19.950Z,8.83
2022-09-27T18:16:47.612Z,8.03
2022-09-27T18:19:22.886Z,11.87
2022-09-27T18:21:53.382Z,12.70
2022-09-27T18:24:22.992Z,11.13
2022-09-27T18:26:51.695Z,11.03
2022-09-27T18:29:21.360Z,12.33
2022-09-27T18:31:49.410Z,12.13
2022-09-27T18:34:18.701Z,7.40
2022-09-27T18:36:50.937Z,10.87
2022-09-27T18:39:20.019Z,13.40
2022-09-27T18:41:50.685Z,7.30
2022-09-27T18:44:19.104Z,12.27
2022-09-27T18:46:50.088Z,8.40
2022-09-27T18:49:26.353Z,8.80
2022-09-27T18:51:58.992Z,10.40
2022-09-27T18:54:28.772Z,7.20
2022-09-27T18:57:00.548Z,11.00
2022-09-27T18:59:29.943Z,14.13
2022-09-27T19:02:00.605Z,10.17
2022-09-27T19:04:29.667Z,13.67
2022-09-27T19:06:59.926Z,9.60
2022-09-27T19:09:32.566Z,11.10
2022-09-27T19:14:28.797Z,11.87
2022-09-27T19:17:01.385Z,11.43
2022-09-27T19:19:29.270Z,11.90
2022-09-27T19:21:58.902Z,15.30
2022-09-27T19:24:29.967Z,9.27
2022-09-27T19:26:58.612Z,11.83
2022-09-27T19:29:33.217Z,13.47
2022-09-27T19:32:07.539Z,12.50
2022-09-27T19:34:35.351Z,12.97
2022-09-27T19:37:02.555Z,14.00
2022-09-27T19:39:37.068Z,9.93
2022-09-27T19:42:05.545Z,11.40
2022-09-27T19:44:38.363Z,10.70
2022-09-27T19:53:27.661Z,8.40
2022-09-27T19:56:04.651Z,6.53
2022-09-27T19:58:33.079Z,5.63
2022-09-27T20:01:02.568Z,9.57
2022-09-27T20:03:29.900Z,14.33
2022-09-27T20:05:58.524Z,12.83
2022-09-27T20:08:27.548Z,9.50
2022-09-27T20:11:03.732Z,12.30
2022-09-27T20:13:33.565Z,11.13
2022-09-27T20:16:07.730Z,11.13
2022-09-27T20:18:38.359Z,12.00
2022-09-27T20:21:05.327Z,11.23
2022-09-27T20:23:33.919Z,9.13
2022-09-27T20:26:07.699Z,16.53
2022-09-27T20:28:35.711Z,4.53
2022-09-27T20:31:04.942Z,9.67
2022-09-27T20:33:44.985Z,8.17
2022-09-27T20:36:16.603Z,8.83
2022-09-27T20:38:48.312Z,9.47
2022-09-27T20:41:18.275Z,5.27
2022-09-27T20:43:45.542Z,7.53
2022-09-27T20:46:15.899Z,6.80
2022-09-27T20:48:43.526Z,8.93
2022-09-27T20:51:14.335Z,7.17
2022-09-27T20:53:42.560Z,8.97
2022-09-27T20:56:35.550Z,5.80
2022-09-27T20:59:05.173Z,6.90
2022-09-27T21:01:32.864Z,7.57
2022-09-27T21:04:02.860Z,9.10
2022-09-27T21:06:31.553Z,9.57
2022-09-27T21:08:59.556Z,5.67
2022-09-27T21:11:27.519Z,8.00
2022-09-27T21:13:54.887Z,5.47
2022-09-27T21:16:27.322Z,9.57
2022-09-27T21:18:56.768Z,13.25
2022-09-27T21:21:24.842Z,7.43
2022-09-27T21:24:00.469Z,5.73
2022-09-27T21:26:31.917Z,7.97
2022-09-27T21:29:58.709Z,9.43
2022-09-27T21:33:25.127Z,5.47
2022-09-27T21:40:44.140Z,9.93
2022-09-27T21:44:10.623Z,13.80
2022-09-27T21:47:37.141Z,8.30
2022-09-27T21:50:04.155Z,6.93
2022-09-27T21:53:30.762Z,8.40
2022-09-27T21:56:57.215Z,7.97
2022-09-27T22:04:16.451Z,5.87
2022-09-27T22:07:43.118Z,11.67
2022-09-27T22:11:09.694Z,7.53
2022-09-27T22:14:36.227Z,4.23
2022-09-27T22:18:02.746Z,7.07
2022-09-27T22:25:05.909Z,9.23
2022-09-27T22:28:32.471Z,7.77
2022-09-27T22:35:51.611Z,6.97
2022-09-27T22:39:18.145Z,10.73
2022-09-27T22:46:35.938Z,8.17
